sensor_id;sensor_type;location;lat;lon;timestamp;temperature;humidity
32640;DHT22;19049;52.524;11.468;2023-06-22T00:05:34;17.70;95.80
32640;DHT22;19049;52.524;11.468;2023-06-22T00:08:03;17.10;98.80
32640;DHT22;19049;52.524;11.468;2023-06-22T00:10:29;18.20;92.90
32640;DHT22;19049;52.524;11.468;2023-06-22T00:20:13;17.00;98.70
32640;DHT22;19049;52.524;11.468;2023-06-22T00:22:40;17.90;99.90
32640;DHT22;19049;52.524;11.468;2023-06-22T00:25:09;17.40;90.50
32640;DHT22;19049;52.524;11.468;2023-06-22T00:27:35;17.20;98.20
32640;DHT22;19049;52.524;11.468;2023-06-22T00:30:01;17.10;99.20
32640;DHT22;19049;52.524;11.468;2023-06-22T00:32:26;17.60;99.60
32640;DHT22;19049;52.524;11.468;2023-06-22T00:34:52;17.50;99.40
32640;DHT22;19049;52.524;11.468;2023-06-22T00:37:18;17.80;99.50
32640;DHT22;19049;52.524;11.468;2023-06-22T00:47:02;17.10;91.10
32640;DHT22;19049;52.524;11.468;2023-06-22T00:49:28;16.80;99.40
32640;DHT22;19049;52.524;11.468;2023-06-22T00:54:21;16.20;99.20
32640;DHT22;19049;52.524;11.468;2023-06-22T00:56:53;17.70;91.70
32640;DHT22;19049;52.524;11.468;2023-06-22T00:59:23;16.90;91.40
32640;DHT22;19049;52.524;11.468;2023-06-22T01:01:49;16.70;99.30
32640;DHT22;19049;52.524;11.468;2023-06-22T01:04:15;16.40;99.90
32640;DHT22;19049;52.524;11.468;2023-06-22T01:06:52;16.90;91.50
32640;DHT22;19049;52.524;11.468;2023-06-22T01:09:24;16.80;91.60
32640;DHT22;19049;52.524;11.468;2023-06-22T01:12:01;16.80;91.70
32640;DHT22;19049;52.524;11.468;2023-06-22T01:14:39;16.60;99.80
32640;DHT22;19049;52.524;11.468;2023-06-22T01:17:08;16.60;99.70
32640;DHT22;19049;52.524;11.468;2023-06-22T01:19:44;17.30;99.90
32640;DHT22;19049;52.524;11.468;2023-06-22T01:22:16;16.20;99.90
32640;DHT22;19049;52.524;11.468;2023-06-22T01:25:21;16.10;99.90
32640;DHT22;19049;52.524;11.468;2023-06-22T01:28:05;16.20;99.80
32640;DHT22;19049;52.524;11.468;2023-06-22T01:30:41;17.30;93.10
32640;DHT22;19049;52.524;11.468;2023-06-22T01:33:11;16.00;99.90
32640;DHT22;19049;52.524;11.468;2023-06-22T01:35:38;16.00;99.90
32640;DHT22;19049;52.524;11.468;2023-06-22T01:38:05;16.80;99.00
32640;DHT22;19049;52.524;11.468;2023-06-22T01:40:33;17.00;99.90
32640;DHT22;19049;52.524;11.468;2023-06-22T01:43:01;15.90;99.90
32640;DHT22;19049;52.524;11.468;2023-06-22T01:45:28;15.40;99.90
32640;DHT22;19049;52.524;11.468;2023-06-22T01:47:54;16.90;99.90
32640;DHT22;19049;52.524;11.468;2023-06-22T01:50:21;16.10;99.90
32640;DHT22;19049;52.524;11.468;2023-06-22T01:52:47;16.30;95.00
32640;DHT22;19049;52.524;11.468;2023-06-22T01:57:39;16.00;94.40
32640;DHT22;19049;52.524;11.468;2023-06-22T02:02:39;16.50;94.10
32640;DHT22;19049;52.524;11.468;2023-06-22T02:05:09;16.20;92.80
32640;DHT22;19049;52.524;11.468;2023-06-22T02:08:00;16.20;92.70
32640;DHT22;19049;52.524;11.468;2023-06-22T02:10:28;16.50;99.90
32640;DHT22;19049;52.524;11.468;2023-06-22T02:12:54;15.20;99.90
32640;DHT22;19049;52.524;11.468;2023-06-22T02:15:22;16.10;99.90
32640;DHT22;19049;52.524;11.468;2023-06-22T02:20:14;15.50;99.90
32640;DHT22;19049;52.524;11.468;2023-06-22T02:22:40;16.20;96.30
32640;DHT22;19049;52.524;11.468;2023-06-22T02:25:06;15.60;99.90
32640;DHT22;19049;52.524;11.468;2023-06-22T02:27:32;15.10;99.90
32640;DHT22;19049;52.524;11.468;2023-06-22T02:29:58;15.90;99.90
32640;DHT22;19049;52.524;11.468;2023-06-22T02:32:23;15.10;95.20
32640;DHT22;19049;52.524;11.468;2023-06-22T02:37:16;15.40;98.60
32640;DHT22;19049;52.524;11.468;2023-06-22T02:42:08;16.20;99.70
32640;DHT22;19049;52.524;11.468;2023-06-22T02:44:36;15.30;95.80
32640;DHT22;19049;52.524;11.468;2023-06-22T02:47:02;16.40;99.60
32640;DHT22;19049;52.524;11.468;2023-06-22T02:49:27;15.80;99.90
32640;DHT22;19049;52.524;11.468;2023-06-22T02:51:53;16.00;99.90
32640;DHT22;19049;52.524;11.468;2023-06-22T02:56:46;15.90;99.90
32640;DHT22;19049;52.524;11.468;2023-06-22T02:59:13;15.70;99.90
32640;DHT22;19049;52.524;11.468;2023-06-22T03:01:39;15.60;99.90
32640;DHT22;19049;52.524;11.468;2023-06-22T03:04:08;15.70;99.90
32640;DHT22;19049;52.524;11.468;2023-06-22T03:06:34;15.50;99.90
32640;DHT22;19049;52.524;11.468;2023-06-22T03:09:02;15.70;93.70
32640;DHT22;19049;52.524;11.468;2023-06-22T03:11:29;15.60;99.90
32640;DHT22;19049;52.524;11.468;2023-06-22T03:18:48;15.00;99.90
32640;DHT22;19049;52.524;11.468;2023-06-22T03:21:13;16.30;99.90
32640;DHT22;19049;52.524;11.468;2023-06-22T03:23:41;16.10;99.30
32640;DHT22;19049;52.524;11.468;2023-06-22T03:26:06;15.60;99.90
32640;DHT22;19049;52.524;11.468;2023-06-22T03:35:50;16.00;99.90
32640;DHT22;19049;52.524;11.468;2023-06-22T03:38:17;15.90;99.90
32640;DHT22;19049;52.524;11.468;2023-06-22T03:48:01;16.40;96.80
32640;DHT22;19049;52.524;11.468;2023-06-22T03:50:27;16.30;95.70
32640;DHT22;19049;52.524;11.468;2023-06-22T03:52:53;15.70;99.90
32640;DHT22;19049;52.524;11.468;2023-06-22T03:55:21;15.70;99.90
32640;DHT22;19049;52.524;11.468;2023-06-22T04:00:13;16.80;99.90
32640;DHT22;19049;52.524;11.468;2023-06-22T04:02:41;16.90;99.30
32640;DHT22;19049;52.524;11.468;2023-06-22T04:05:10;16.20;99.90
32640;DHT22;19049;52.524;11.468;2023-06-22T04:10:03;15.60;99.90
32640;DHT22;19049;52.524;11.468;2023-06-22T04:12:29;17.30;99.90
32640;DHT22;19049;52.524;11.468;2023-06-22T04:19:50;17.20;99.90
32640;DHT22;19049;52.524;11.468;2023-06-22T04:22:16;18.00;99.90
32640;DHT22;19049;52.524;11.468;2023-06-22T04:24:41;17.20;99.90
32640;DHT22;19049;52.524;11.468;2023-06-22T04:27:07;18.50;99.40
32640;DHT22;19049;52.524;11.468;2023-06-22T04:31:58;18.50;99.90
32640;DHT22;19049;52.524;11.468;2023-06-22T04:34:29;18.10;99.90
32640;DHT22;19049;52.524;11.468;2023-06-22T04:36:55;19.70;99.90
32640;DHT22;19049;52.524;11.468;2023-06-22T04:39:21;19.20;99.90
32640;DHT22;19049;52.524;11.468;2023-06-22T04:41:47;19.30;99.90
32640;DHT22;19049;52.524;11.468;2023-06-22T04:44:17;20.00;99.90
32640;DHT22;19049;52.524;11.468;2023-06-22T04:47:00;19.60;99.90
32640;DHT22;19049;52.524;11.468;2023-06-22T04:49:27;19.80;94.10
32640;DHT22;19049;52.524;11.468;2023-06-22T04:51:58;19.70;99.90
32640;DHT22;19049;52.524;11.468;2023-06-22T04:56:50;20.70;99.90
32640;DHT22;19049;52.524;11.468;2023-06-22T04:59:29;20.30;93.40
32640;DHT22;19049;52.524;11.468;2023-06-22T05:01:59;20.80;99.90
32640;DHT22;19049;52.524;11.468;2023-06-22T05:04:26;20.30;93.40
32640;DHT22;19049;52.524;11.468;2023-06-22T05:06:53;19.90;99.90
32640;DHT22;19049;52.524;11.468;2023-06-22T05:09:19;21.00;99.90
32640;DHT22;19049;52.524;11.468;2023-06-22T05:14:11;20.10;99.90
32640;DHT22;19049;52.524;11.468;2023-06-22T05:16:37;20.80;99.90
32640;DHT22;19049;52.524;11.468;2023-06-22T05:21:30;20.90;99.90
32640;DHT22;19049;52.524;11.468;2023-06-22T05:23:56;21.20;99.90
32640;DHT22;19049;52.524;11.468;2023-06-22T05:26:31;20.90;99.90
32640;DHT22;19049;52.524;11.468;2023-06-22T05:28:57;21.60;99.90
32640;DHT22;19049;52.524;11.468;2023-06-22T05:31:23;21.40;99.90
32640;DHT22;19049;52.524;11.468;2023-06-22T05:33:50;21.40;94.50
32640;DHT22;19049;52.524;11.468;2023-06-22T05:36:16;21.00;98.50
32640;DHT22;19049;52.524;11.468;2023-06-22T05:38:42;22.40;99.90
32640;DHT22;19049;52.524;11.468;2023-06-22T05:43:34;22.10;99.90
32640;DHT22;19049;52.524;11.468;2023-06-22T05:46:01;22.30;94.00
32640;DHT22;19049;52.524;11.468;2023-06-22T05:48:27;22.60;99.90
32640;DHT22;19049;52.524;11.468;2023-06-22T05:53:18;23.30;99.90
32640;DHT22;19049;52.524;11.468;2023-06-22T05:58:10;22.60;98.00
32640;DHT22;19049;52.524;11.468;2023-06-22T06:00:36;22.70;99.90
32640;DHT22;19049;52.524;11.468;2023-06-22T06:03:02;23.70;99.90
32640;DHT22;19049;52.524;11.468;2023-06-22T06:05:33;23.50;93.80
32640;DHT22;19049;52.524;11.468;2023-06-22T06:08:04;24.10;99.90
32640;DHT22;19049;52.524;11.468;2023-06-22T06:10:34;24.10;99.70
32640;DHT22;19049;52.524;11.468;2023-06-22T06:13:00;24.90;99.70
32640;DHT22;19049;52.524;11.468;2023-06-22T06:15:30;24.70;99.90
32640;DHT22;19049;52.524;11.468;2023-06-22T06:17:56;24.20;99.70
32640;DHT22;19049;52.524;11.468;2023-06-22T06:20:23;24.90;92.20
32640;DHT22;19049;52.524;11.468;2023-06-22T06:22:49;25.20;99.30
32640;DHT22;19049;52.524;11.468;2023-06-22T06:27:46;25.50;91.80
32640;DHT22;19049;52.524;11.468;2023-06-22T06:30:13;25.20;99.10
32640;DHT22;19049;52.524;11.468;2023-06-22T06:35:09;26.10;91.60
32640;DHT22;19049;52.524;11.468;2023-06-22T06:37:43;26.40;91.10
32640;DHT22;19049;52.524;11.468;2023-06-22T06:40:10;26.60;90.80
32640;DHT22;19049;52.524;11.468;2023-06-22T06:42:45;26.80;90.80
32640;DHT22;19049;52.524;11.468;2023-06-22T06:45:15;27.00;90.50
32640;DHT22;19049;52.524;11.468;2023-06-22T06:47:40;27.30;90.50
32640;DHT22;19049;52.524;11.468;2023-06-22T06:52:32;27.60;96.50
32640;DHT22;19049;52.524;11.468;2023-06-22T06:54:58;27.50;95.30
32640;DHT22;19049;52.524;11.468;2023-06-22T06:57:24;28.50;95.00
32640;DHT22;19049;52.524;11.468;2023-06-22T07:02:20;28.50;86.40
32640;DHT22;19049;52.524;11.468;2023-06-22T07:04:46;29.20;95.10
32640;DHT22;19049;52.524;11.468;2023-06-22T07:07:12;29.70;90.40
32640;DHT22;19049;52.524;11.468;2023-06-22T07:12:04;28.60;88.00
32640;DHT22;19049;52.524;11.468;2023-06-22T07:14:30;29.60;94.30
32640;DHT22;19049;52.524;11.468;2023-06-22T07:19:29;29.20;92.10
32640;DHT22;19049;52.524;11.468;2023-06-22T07:24:22;28.80;78.00
32640;DHT22;19049;52.524;11.468;2023-06-22T07:29:19;28.90;92.00
32640;DHT22;19049;52.524;11.468;2023-06-22T07:31:46;29.40;81.10
32640;DHT22;19049;52.524;11.468;2023-06-22T07:39:05;28.70;81.10
32640;DHT22;19049;52.524;11.468;2023-06-22T07:43:57;28.00;85.40
32640;DHT22;19049;52.524;11.468;2023-06-22T07:46:23;28.90;81.40
32640;DHT22;19049;52.524;11.468;2023-06-22T07:48:48;28.10;85.80
32640;DHT22;19049;52.524;11.468;2023-06-22T07:53:44;28.40;88.20
32640;DHT22;19049;52.524;11.468;2023-06-22T07:56:10;28.90;76.00
32640;DHT22;19049;52.524;11.468;2023-06-22T08:01:02;29.20;76.70
32640;DHT22;19049;52.524;11.468;2023-06-22T08:03:28;29.10;86.60
32640;DHT22;19049;52.524;11.468;2023-06-22T08:13:12;29.20;88.40
32640;DHT22;19049;52.524;11.468;2023-06-22T08:15:38;29.90;73.50
32640;DHT22;19049;52.524;11.468;2023-06-22T08:18:03;30.00;72.10
32640;DHT22;19049;52.524;11.468;2023-06-22T08:20:29;30.00;71.10
32640;DHT22;19049;52.524;11.468;2023-06-22T08:22:55;29.90;70.80
32640;DHT22;19049;52.524;11.468;2023-06-22T08:25:23;29.80;71.20
32640;DHT22;19049;52.524;11.468;2023-06-22T08:27:48;29.80;71.50
32640;DHT22;19049;52.524;11.468;2023-06-22T08:30:15;29.80;71.10
32640;DHT22;19049;52.524;11.468;2023-06-22T08:32:41;29.90;70.70
32640;DHT22;19049;52.524;11.468;2023-06-22T08:35:06;29.80;70.00
32640;DHT22;19049;52.524;11.468;2023-06-22T08:37:34;30.60;86.50
32640;DHT22;19049;52.524;11.468;2023-06-22T08:40:02;30.00;68.90
32640;DHT22;19049;52.524;11.468;2023-06-22T08:42:40;29.70;83.20
32640;DHT22;19049;52.524;11.468;2023-06-22T08:45:06;31.10;80.80
32640;DHT22;19049;52.524;11.468;2023-06-22T08:47:32;30.60;79.90
32640;DHT22;19049;52.524;11.468;2023-06-22T08:49:57;30.80;74.00
32640;DHT22;19049;52.524;11.468;2023-06-22T08:52:23;30.80;71.90
32640;DHT22;19049;52.524;11.468;2023-06-22T08:54:49;31.30;81.10
32640;DHT22;19049;52.524;11.468;2023-06-22T08:57:15;31.70;79.40
32640;DHT22;19049;52.524;11.468;2023-06-22T08:59:41;31.60;82.30
32640;DHT22;19049;52.524;11.468;2023-06-22T09:04:33;31.60;78.00
32640;DHT22;19049;52.524;11.468;2023-06-22T09:07:02;31.20;71.80
32640;DHT22;19049;52.524;11.468;2023-06-22T09:09:28;32.00;78.10
32640;DHT22;19049;52.524;11.468;2023-06-22T09:11:53;31.90;77.10
32640;DHT22;19049;52.524;11.468;2023-06-22T09:14:19;31.20;76.10
32640;DHT22;19049;52.524;11.468;2023-06-22T09:16:44;31.90;76.70
32640;DHT22;19049;52.524;11.468;2023-06-22T09:21:36;32.50;76.80
32640;DHT22;19049;52.524;11.468;2023-06-22T09:24:02;31.70;76.50
32640;DHT22;19049;52.524;11.468;2023-06-22T09:26:28;31.40;76.70
32640;DHT22;19049;52.524;11.468;2023-06-22T09:28:53;32.90;79.40
32640;DHT22;19049;52.524;11.468;2023-06-22T09:31:19;32.00;62.80
32640;DHT22;19049;52.524;11.468;2023-06-22T09:33:51;32.10;63.50
32640;DHT22;19049;52.524;11.468;2023-06-22T09:36:17;32.30;76.10
32640;DHT22;19049;52.524;11.468;2023-06-22T09:41:09;32.60;76.70
32640;DHT22;19049;52.524;11.468;2023-06-22T09:43:34;32.20;73.20
32640;DHT22;19049;52.524;11.468;2023-06-22T09:46:02;32.60;74.90
32640;DHT22;19049;52.524;11.468;2023-06-22T09:48:28;32.60;73.00
32640;DHT22;19049;52.524;11.468;2023-06-22T09:50:55;33.40;70.10
32640;DHT22;19049;52.524;11.468;2023-06-22T09:53:20;33.00;66.20
32640;DHT22;19049;52.524;11.468;2023-06-22T09:55:46;33.10;57.70
32640;DHT22;19049;52.524;11.468;2023-06-22T10:00:38;34.00;62.60
32640;DHT22;19049;52.524;11.468;2023-06-22T10:05:29;32.80;71.10
32640;DHT22;19049;52.524;11.468;2023-06-22T10:07:55;33.00;68.50
32640;DHT22;19049;52.524;11.468;2023-06-22T10:10:20;33.30;67.60
32640;DHT22;19049;52.524;11.468;2023-06-22T10:12:48;32.90;57.30
32640;DHT22;19049;52.524;11.468;2023-06-22T10:15:14;32.50;68.40
32640;DHT22;19049;52.524;11.468;2023-06-22T10:17:40;32.70;67.70
32640;DHT22;19049;52.524;11.468;2023-06-22T10:20:07;33.30;68.00
32640;DHT22;19049;52.524;11.468;2023-06-22T10:22:43;33.00;56.30
32640;DHT22;19049;52.524;11.468;2023-06-22T10:25:11;32.90;55.70
32640;DHT22;19049;52.524;11.468;2023-06-22T10:30:06;32.80;67.50
32640;DHT22;19049;52.524;11.468;2023-06-22T10:39:50;33.80;71.10
32640;DHT22;19049;52.524;11.468;2023-06-22T10:42:16;33.00;70.50
32640;DHT22;19049;52.524;11.468;2023-06-22T10:49:39;32.60;65.10
32640;DHT22;19049;52.524;11.468;2023-06-22T10:52:07;32.10;55.30
32640;DHT22;19049;52.524;11.468;2023-06-22T10:54:33;32.30;56.10
32640;DHT22;19049;52.524;11.468;2023-06-22T10:59:25;31.70;63.50
32640;DHT22;19049;52.524;11.468;2023-06-22T11:09:09;31.00;65.10
32640;DHT22;19049;52.524;11.468;2023-06-22T11:11:35;31.80;59.00
32640;DHT22;19049;52.524;11.468;2023-06-22T11:16:27;31.90;60.50
32640;DHT22;19049;52.524;11.468;2023-06-22T11:18:52;31.90;60.60
32640;DHT22;19049;52.524;11.468;2023-06-22T11:21:18;31.20;65.80
32640;DHT22;19049;52.524;11.468;2023-06-22T11:26:10;32.00;64.10
32640;DHT22;19049;52.524;11.468;2023-06-22T11:35:53;31.50;65.60
32640;DHT22;19049;52.524;11.468;2023-06-22T11:38:19;31.20;69.30
32640;DHT22;19049;52.524;11.468;2023-06-22T11:40:44;31.10;65.00
32640;DHT22;19049;52.524;11.468;2023-06-22T11:43:10;31.30;63.50
32640;DHT22;19049;52.524;11.468;2023-06-22T11:45:35;32.10;66.30
32640;DHT22;19049;52.524;11.468;2023-06-22T11:48:01;32.40;65.80
32640;DHT22;19049;52.524;11.468;2023-06-22T11:50:26;32.30;65.40
32640;DHT22;19049;52.524;11.468;2023-06-22T11:55:21;32.00;68.80
32640;DHT22;19049;52.524;11.468;2023-06-22T11:57:57;30.90;63.60
32640;DHT22;19049;52.524;11.468;2023-06-22T12:02:51;31.00;67.00
32640;DHT22;19049;52.524;11.468;2023-06-22T12:05:20;31.30;56.10
32640;DHT22;19049;52.524;11.468;2023-06-22T12:07:49;31.20;56.00
32640;DHT22;19049;52.524;11.468;2023-06-22T12:10:15;31.00;69.50
32640;DHT22;19049;52.524;11.468;2023-06-22T12:12:41;31.10;71.50
32640;DHT22;19049;52.524;11.468;2023-06-22T12:15:09;30.90;56.50
32640;DHT22;19049;52.524;11.468;2023-06-22T12:17:35;30.80;56.70
32640;DHT22;19049;52.524;11.468;2023-06-22T12:20:01;30.80;56.90
32640;DHT22;19049;52.524;11.468;2023-06-22T12:22:28;30.70;70.80
32640;DHT22;19049;52.524;11.468;2023-06-22T12:24:53;30.80;57.30
32640;DHT22;19049;52.524;11.468;2023-06-22T12:27:19;30.90;57.60
32640;DHT22;19049;52.524;11.468;2023-06-22T12:29:47;31.00;57.30
32640;DHT22;19049;52.524;11.468;2023-06-22T12:32:14;31.50;73.70
32640;DHT22;19049;52.524;11.468;2023-06-22T12:34:41;31.50;73.80
32640;DHT22;19049;52.524;11.468;2023-06-22T12:37:06;31.30;56.80
32640;DHT22;19049;52.524;11.468;2023-06-22T12:39:32;31.40;56.80
32640;DHT22;19049;52.524;11.468;2023-06-22T12:41:58;31.40;56.60
32640;DHT22;19049;52.524;11.468;2023-06-22T12:44:24;31.50;56.70
32640;DHT22;19049;52.524;11.468;2023-06-22T12:46:49;31.60;74.70
32640;DHT22;19049;52.524;11.468;2023-06-22T12:49:15;31.60;68.40
32640;DHT22;19049;52.524;11.468;2023-06-22T12:51:42;31.60;55.90
32640;DHT22;19049;52.524;11.468;2023-06-22T12:54:08;31.40;67.20
32640;DHT22;19049;52.524;11.468;2023-06-22T12:56:34;31.80;78.10
32640;DHT22;19049;52.524;11.468;2023-06-22T12:59:00;32.00;55.50
32640;DHT22;19049;52.524;11.468;2023-06-22T13:01:28;32.10;55.30
32640;DHT22;19049;52.524;11.468;2023-06-22T13:08:47;33.00;63.80
32640;DHT22;19049;52.524;11.468;2023-06-22T13:13:40;33.40;52.60
32640;DHT22;19049;52.524;11.468;2023-06-22T13:16:06;34.40;59.80
32640;DHT22;19049;52.524;11.468;2023-06-22T13:18:31;33.20;59.30
32640;DHT22;19049;52.524;11.468;2023-06-22T13:20:58;34.00;60.90
32640;DHT22;19049;52.524;11.468;2023-06-22T13:23:25;32.90;62.50
32640;DHT22;19049;52.524;11.468;2023-06-22T13:25:51;34.60;63.90
32640;DHT22;19049;52.524;11.468;2023-06-22T13:33:11;33.70;58.10
32640;DHT22;19049;52.524;11.468;2023-06-22T13:35:37;33.10;51.20
32640;DHT22;19049;52.524;11.468;2023-06-22T13:38:03;33.10;62.10
32640;DHT22;19049;52.524;11.468;2023-06-22T13:42:56;33.40;61.00
32640;DHT22;19049;52.524;11.468;2023-06-22T13:45:22;32.70;50.40
32640;DHT22;19049;52.524;11.468;2023-06-22T13:52:39;31.80;61.40
32640;DHT22;19049;52.524;11.468;2023-06-22T13:55:06;32.20;60.10
32640;DHT22;19049;52.524;11.468;2023-06-22T13:57:33;32.10;60.80
32640;DHT22;19049;52.524;11.468;2023-06-22T13:59:59;32.30;56.30
32640;DHT22;19049;52.524;11.468;2023-06-22T14:02:26;32.50;51.90
32640;DHT22;19049;52.524;11.468;2023-06-22T14:04:52;33.10;61.70
32640;DHT22;19049;52.524;11.468;2023-06-22T14:07:17;32.70;59.50
32640;DHT22;19049;52.524;11.468;2023-06-22T14:12:11;34.00;54.40
32640;DHT22;19049;52.524;11.468;2023-06-22T14:14:36;33.60;51.10
32640;DHT22;19049;52.524;11.468;2023-06-22T14:17:03;34.30;48.40
32640;DHT22;19049;52.524;11.468;2023-06-22T14:19:29;35.20;55.70
32640;DHT22;19049;52.524;11.468;2023-06-22T14:21:55;34.40;51.30
32640;DHT22;19049;52.524;11.468;2023-06-22T14:31:40;33.80;50.90
32640;DHT22;19049;52.524;11.468;2023-06-22T14:36:32;35.40;57.20
32640;DHT22;19049;52.524;11.468;2023-06-22T14:38:57;34.60;47.50
32640;DHT22;19049;52.524;11.468;2023-06-22T14:41:23;34.70;47.00
32640;DHT22;19049;52.524;11.468;2023-06-22T14:43:52;34.70;46.20
32640;DHT22;19049;52.524;11.468;2023-06-22T14:46:18;34.50;44.80
32640;DHT22;19049;52.524;11.468;2023-06-22T14:48:44;33.40;55.40
32640;DHT22;19049;52.524;11.468;2023-06-22T14:51:11;33.90;54.40
32640;DHT22;19049;52.524;11.468;2023-06-22T14:56:03;33.70;47.30
32640;DHT22;19049;52.524;11.468;2023-06-22T14:58:33;33.20;47.20
32640;DHT22;19049;52.524;11.468;2023-06-22T15:01:02;32.60;55.00
32640;DHT22;19049;52.524;11.468;2023-06-22T15:03:30;32.50;54.30
32640;DHT22;19049;52.524;11.468;2023-06-22T15:05:57;33.30;49.80
32640;DHT22;19049;52.524;11.468;2023-06-22T15:08:25;33.70;55.20
32640;DHT22;19049;52.524;11.468;2023-06-22T15:15:46;32.20;55.30
32640;DHT22;19049;52.524;11.468;2023-06-22T15:18:13;31.60;51.00
32640;DHT22;19049;52.524;11.468;2023-06-22T15:20:39;32.10;55.70
32640;DHT22;19049;52.524;11.468;2023-06-22T15:23:06;32.40;47.20
32640;DHT22;19049;52.524;11.468;2023-06-22T15:27:58;32.80;55.70
32640;DHT22;19049;52.524;11.468;2023-06-22T15:35:15;32.20;57.50
32640;DHT22;19049;52.524;11.468;2023-06-22T15:37:45;32.30;46.50
32640;DHT22;19049;52.524;11.468;2023-06-22T15:40:10;32.50;60.00
32640;DHT22;19049;52.524;11.468;2023-06-22T15:42:36;31.60;55.60
32640;DHT22;19049;52.524;11.468;2023-06-22T15:45:02;32.20;56.80
32640;DHT22;19049;52.524;11.468;2023-06-22T15:47:28;32.00;47.20
32640;DHT22;19049;52.524;11.468;2023-06-22T15:49:53;32.70;47.90
32640;DHT22;19049;52.524;11.468;2023-06-22T15:52:19;31.80;47.60
32640;DHT22;19049;52.524;11.468;2023-06-22T15:54:49;31.70;47.50
32640;DHT22;19049;52.524;11.468;2023-06-22T15:57:16;31.70;47.50
32640;DHT22;19049;52.524;11.468;2023-06-22T15:59:42;31.60;48.20
32640;DHT22;19049;52.524;11.468;2023-06-22T16:02:09;31.30;47.10
32640;DHT22;19049;52.524;11.468;2023-06-22T16:04:35;31.20;47.30
32640;DHT22;19049;52.524;11.468;2023-06-22T16:11:54;31.30;63.10
32640;DHT22;19049;52.524;11.468;2023-06-22T16:14:20;31.00;48.20
32640;DHT22;19049;52.524;11.468;2023-06-22T16:16:46;31.00;49.60
32640;DHT22;19049;52.524;11.468;2023-06-22T16:19:12;30.90;48.40
32640;DHT22;19049;52.524;11.468;2023-06-22T16:21:37;30.80;48.60
32640;DHT22;19049;52.524;11.468;2023-06-22T16:24:03;30.70;48.70
32640;DHT22;19049;52.524;11.468;2023-06-22T16:26:38;30.70;49.00
32640;DHT22;19049;52.524;11.468;2023-06-22T16:29:05;30.60;49.10
32640;DHT22;19049;52.524;11.468;2023-06-22T16:31:31;30.50;49.30
32640;DHT22;19049;52.524;11.468;2023-06-22T16:33:57;30.50;49.60
32640;DHT22;19049;52.524;11.468;2023-06-22T16:36:23;30.40;49.40
32640;DHT22;19049;52.524;11.468;2023-06-22T16:38:49;30.30;50.20
32640;DHT22;19049;52.524;11.468;2023-06-22T16:41:16;30.30;49.60
32640;DHT22;19049;52.524;11.468;2023-06-22T16:43:42;30.20;49.60
32640;DHT22;19049;52.524;11.468;2023-06-22T16:46:08;30.10;49.80
32640;DHT22;19049;52.524;11.468;2023-06-22T16:48:37;30.00;49.80
32640;DHT22;19049;52.524;11.468;2023-06-22T16:51:03;30.20;62.30
32640;DHT22;19049;52.524;11.468;2023-06-22T16:53:29;29.60;66.00
32640;DHT22;19049;52.524;11.468;2023-06-22T16:55:55;29.80;50.00
32640;DHT22;19049;52.524;11.468;2023-06-22T16:58:23;29.70;50.20
32640;DHT22;19049;52.524;11.468;2023-06-22T17:00:52;29.70;50.30
32640;DHT22;19049;52.524;11.468;2023-06-22T17:03:29;29.50;49.90
32640;DHT22;19049;52.524;11.468;2023-06-22T17:05:56;29.50;50.40
32640;DHT22;19049;52.524;11.468;2023-06-22T17:08:23;29.40;50.50
32640;DHT22;19049;52.524;11.468;2023-06-22T17:10:50;29.90;60.00
32640;DHT22;19049;52.524;11.468;2023-06-22T17:13:17;29.50;56.60
32640;DHT22;19049;52.524;11.468;2023-06-22T17:15:43;29.10;50.20
32640;DHT22;19049;52.524;11.468;2023-06-22T17:18:09;29.40;57.70
32640;DHT22;19049;52.524;11.468;2023-06-22T17:20:36;28.70;57.50
32640;DHT22;19049;52.524;11.468;2023-06-22T17:23:02;28.50;60.10
32640;DHT22;19049;52.524;11.468;2023-06-22T17:25:28;28.70;61.10
32640;DHT22;19049;52.524;11.468;2023-06-22T17:28:03;28.70;54.90
32640;DHT22;19049;52.524;11.468;2023-06-22T17:30:29;29.40;53.80
32640;DHT22;19049;52.524;11.468;2023-06-22T17:32:56;29.00;63.00
32640;DHT22;19049;52.524;11.468;2023-06-22T17:35:22;28.70;52.30
32640;DHT22;19049;52.524;11.468;2023-06-22T17:37:55;28.90;61.20
32640;DHT22;19049;52.524;11.468;2023-06-22T17:40:23;27.90;53.80
32640;DHT22;19049;52.524;11.468;2023-06-22T17:45:22;27.90;54.00
32640;DHT22;19049;52.524;11.468;2023-06-22T17:47:53;27.30;57.40
32640;DHT22;19049;52.524;11.468;2023-06-22T17:52:52;27.90;70.40
32640;DHT22;19049;52.524;11.468;2023-06-22T17:55:22;27.00;76.10
32640;DHT22;19049;52.524;11.468;2023-06-22T17:57:54;26.90;59.30
32640;DHT22;19049;52.524;11.468;2023-06-22T18:00:20;26.60;61.10
32640;DHT22;19049;52.524;11.468;2023-06-22T18:02:46;26.20;61.40
32640;DHT22;19049;52.524;11.468;2023-06-22T18:05:15;24.90;64.20
32640;DHT22;19049;52.524;11.468;2023-06-22T18:07:41;24.90;65.50
32640;DHT22;19049;52.524;11.468;2023-06-22T18:10:08;23.60;71.20
32640;DHT22;19049;52.524;11.468;2023-06-22T18:12:36;22.90;92.30
32640;DHT22;19049;52.524;11.468;2023-06-22T18:15:02;23.00;77.50
32640;DHT22;19049;52.524;11.468;2023-06-22T18:19:57;22.10;77.60
32640;DHT22;19049;52.524;11.468;2023-06-22T18:22:25;21.70;79.90
32640;DHT22;19049;52.524;11.468;2023-06-22T18:24:51;21.20;86.10
32640;DHT22;19049;52.524;11.468;2023-06-22T18:27:18;20.70;94.60
32640;DHT22;19049;52.524;11.468;2023-06-22T18:29:44;20.70;95.20
32640;DHT22;19049;52.524;11.468;2023-06-22T18:34:39;21.00;92.10
32640;DHT22;19049;52.524;11.468;2023-06-22T18:37:13;20.80;90.70
32640;DHT22;19049;52.524;11.468;2023-06-22T18:39:42;20.00;98.10
32640;DHT22;19049;52.524;11.468;2023-06-22T18:42:09;20.20;91.20
32640;DHT22;19049;52.524;11.468;2023-06-22T18:44:35;20.00;96.90
32640;DHT22;19049;52.524;11.468;2023-06-22T18:47:02;20.60;99.90
32640;DHT22;19049;52.524;11.468;2023-06-22T18:49:47;20.10;92.50
32640;DHT22;19049;52.524;11.468;2023-06-22T18:52:23;20.30;99.90
32640;DHT22;19049;52.524;11.468;2023-06-22T18:54:49;20.10;93.60
32640;DHT22;19049;52.524;11.468;2023-06-22T18:57:23;20.10;94.20
32640;DHT22;19049;52.524;11.468;2023-06-22T18:59:59;20.10;94.70
32640;DHT22;19049;52.524;11.468;2023-06-22T19:08:04;20.10;99.90
32640;DHT22;19049;52.524;11.468;2023-06-22T19:16:00;20.60;99.90
32640;DHT22;19049;52.524;11.468;2023-06-22T19:19:02;20.00;99.90
32640;DHT22;19049;52.524;11.468;2023-06-22T19:21:23;19.90;99.90
32640;DHT22;19049;52.524;11.468;2023-06-22T19:26:18;20.10;97.90